Dillingham Airport Dillingham US
ICAO: PADL
IATA:
Category: Medium
Scheduled Services:

Elevation: 81 ft
TransAlt. 18000 ft.

Airport Communications:
ATIS:125
AWOS 3:135.55
ANCHORAGE CNTR:132.75
CTAF:123.6
RDO:122.3

PADL Zoom In..

Runways:

(A) RW 01 length 6400 ft width 150 ft
LOC 111.90 / hdg 11

(B) RW 19 length 6400 ft width 150 ft
LOC 111.90 / hdg 191

Location; PADL
Day. 30 / Time. 21.56 Zulu
* Altimeter: 29.73
* Temperature: 16° c. 60.8°f.
* Wind from: 180° Speed 11 kn.
Dewpoint: 06° c.
Visibility: 10 Statute Miles.
Clouds: Few 12000 ft.

PADL 302156Z 18011KT 10SM FEW120 16/06 A2973 RMK AO2 SLP071 T01610061


Wind From 180°
Speed 11 kn.

 
 
jpsmedia worldairports.se 2020   terms of use